createdAt,value
2024-04-09T00:01:21.978Z,58.85
2024-04-09T00:03:49.222Z,60.85
2024-04-09T00:06:16.562Z,61.61
2024-04-09T00:08:46.649Z,62.41
2024-04-09T00:11:24.023Z,63.80
2024-04-09T00:13:52.489Z,66.35
2024-04-09T00:16:26.815Z,68.85
2024-04-09T00:18:56.529Z,68.78
2024-04-09T00:21:24.753Z,68.59
2024-04-09T00:23:52.099Z,70.44
2024-04-09T00:26:18.757Z,69.95
2024-04-09T00:28:45.765Z,70.15
2024-04-09T00:31:12.376Z,69.58
2024-04-09T00:33:39.846Z,70.34
2024-04-09T00:36:06.982Z,71.32
2024-04-09T00:38:34.314Z,71.25
2024-04-09T00:41:00.904Z,72.49
2024-04-09T00:43:27.702Z,72.81
2024-04-09T00:45:56.774Z,72.50
2024-04-09T00:48:23.858Z,72.02
2024-04-09T00:50:52.171Z,73.15
2024-04-09T00:53:19.995Z,71.21
2024-04-09T00:55:50.774Z,70.27
2024-04-09T00:58:19.375Z,76.52
2024-04-09T01:00:46.132Z,75.42
2024-04-09T01:03:13.801Z,77.82
2024-04-09T01:05:40.869Z,77.39
2024-04-09T01:08:07.498Z,75.26
2024-04-09T01:10:34.115Z,75.98
2024-04-09T01:13:00.769Z,76.58
2024-04-09T01:15:27.578Z,74.58
2024-04-09T01:17:54.273Z,72.46
2024-04-09T01:20:21.994Z,72.24
2024-04-09T01:22:48.594Z,72.17
2024-04-09T01:25:16.037Z,73.62
2024-04-09T01:27:42.802Z,72.98
2024-04-09T01:30:10.769Z,72.34
2024-04-09T01:32:40.978Z,71.06
2024-04-09T01:35:08.269Z,70.01
2024-04-09T01:37:35.494Z,69.89
2024-04-09T01:40:03.269Z,67.24
2024-04-09T01:42:30.097Z,70.55
2024-04-09T01:44:56.936Z,65.49
2024-04-09T01:47:23.624Z,66.66
2024-04-09T01:49:50.209Z,67.75
2024-04-09T01:52:16.972Z,68.07
2024-04-09T01:54:48.557Z,68.65
2024-04-09T01:57:15.752Z,68.52
2024-04-09T01:59:42.707Z,70.61
2024-04-09T02:02:10.385Z,71.00
2024-04-09T02:04:37.052Z,72.33
2024-04-09T02:07:03.934Z,69.93
2024-04-09T02:09:30.517Z,71.75
2024-04-09T02:11:57.160Z,71.74
2024-04-09T02:14:24.071Z,72.84
2024-04-09T02:16:51.609Z,74.23
2024-04-09T02:19:18.185Z,74.77
2024-04-09T02:21:44.764Z,73.51
2024-04-09T02:24:11.447Z,73.02
2024-04-09T02:26:38.037Z,69.51
2024-04-09T02:29:04.577Z,66.54
2024-04-09T02:31:31.216Z,65.60
2024-04-09T02:33:57.981Z,66.76
2024-04-09T02:36:24.639Z,66.06
2024-04-09T02:38:51.286Z,67.22
2024-04-09T02:41:18.489Z,57.19
2024-04-09T02:43:45.429Z,59.74
2024-04-09T02:46:11.994Z,61.92
2024-04-09T02:48:38.662Z,62.97
2024-04-09T02:51:06.581Z,59.79
2024-04-09T02:53:36.461Z,59.44
2024-04-09T02:56:08.354Z,58.76
2024-04-09T02:58:36.136Z,55.22
2024-04-09T03:01:08.153Z,52.58
2024-04-09T03:03:36.552Z,51.16
2024-04-09T03:06:08.703Z,49.26
2024-04-09T03:08:36.033Z,50.46
2024-04-09T03:11:02.951Z,50.79
2024-04-09T03:13:29.543Z,50.50
2024-04-09T03:15:56.672Z,49.61
2024-04-09T03:18:23.395Z,49.96
2024-04-09T03:20:58.878Z,51.15
2024-04-09T03:23:25.531Z,51.47
2024-04-09T03:25:52.080Z,51.27
2024-04-09T03:28:18.623Z,54.01
2024-04-09T03:30:45.246Z,53.58
2024-04-09T03:33:11.907Z,55.88
2024-04-09T03:35:38.721Z,56.18
2024-04-09T03:38:05.278Z,56.24
2024-04-09T03:40:33.167Z,53.69
2024-04-09T03:42:59.795Z,51.37
2024-04-09T03:45:27.438Z,49.78
2024-04-09T03:47:54.152Z,48.39
2024-04-09T03:50:20.776Z,48.00
2024-04-09T03:52:47.420Z,48.43
2024-04-09T03:55:14.059Z,49.79
2024-04-09T03:57:41.751Z,49.96
2024-04-09T04:00:13.188Z,51.12
2024-04-09T04:02:40.528Z,50.67
2024-04-09T04:05:07.322Z,52.32
2024-04-09T04:07:33.887Z,53.26
2024-04-09T04:10:00.516Z,52.63
2024-04-09T04:12:27.184Z,54.51
2024-04-09T04:14:53.814Z,55.01
2024-04-09T04:17:20.607Z,56.34
2024-04-09T04:19:47.294Z,57.10
2024-04-09T04:22:14.319Z,57.72
2024-04-09T04:24:41.097Z,58.50
2024-04-09T04:27:08.273Z,58.94
2024-04-09T04:29:35.255Z,59.99
2024-04-09T04:32:01.813Z,60.49
2024-04-09T04:34:28.534Z,60.58
2024-04-09T04:36:55.276Z,62.11
2024-04-09T04:39:22.090Z,62.24
2024-04-09T04:41:48.699Z,63.14
2024-04-09T04:44:15.327Z,64.54
2024-04-09T04:46:42.261Z,64.57
2024-04-09T04:49:09.045Z,65.63
2024-04-09T04:51:35.677Z,65.97
2024-04-09T04:54:02.415Z,66.95
2024-04-09T04:56:29.027Z,67.47
2024-04-09T04:58:55.640Z,68.68
2024-04-09T05:01:22.288Z,69.02
2024-04-09T05:03:49.014Z,70.67
2024-04-09T05:06:15.647Z,70.86
2024-04-09T05:08:42.314Z,71.27
2024-04-09T05:11:12.035Z,71.05
2024-04-09T05:13:38.649Z,72.97
2024-04-09T05:16:05.442Z,73.46
2024-04-09T05:18:32.273Z,75.13
2024-04-09T05:20:59.085Z,75.17
2024-04-09T05:23:25.709Z,75.65
2024-04-09T05:25:52.455Z,77.13
2024-04-09T05:28:19.009Z,78.50
2024-04-09T05:30:45.772Z,78.88
2024-04-09T05:33:12.525Z,78.68
2024-04-09T05:35:39.168Z,79.88
2024-04-09T05:38:06.058Z,79.85
2024-04-09T05:40:35.037Z,81.06
2024-04-09T05:43:01.607Z,81.89
2024-04-09T05:45:28.231Z,82.86
2024-04-09T05:47:55.832Z,82.36
2024-04-09T05:50:22.500Z,82.71
2024-04-09T05:52:49.058Z,84.24
2024-04-09T05:55:15.792Z,84.36
2024-04-09T05:57:43.264Z,86.06
2024-04-09T06:00:16.126Z,84.85
2024-04-09T06:02:47.172Z,84.41
2024-04-09T06:05:17.297Z,85.44
2024-04-09T06:07:45.665Z,86.42
2024-04-09T06:10:15.589Z,86.81
2024-04-09T06:12:42.574Z,89.04
2024-04-09T06:15:09.299Z,90.52
2024-04-09T06:17:36.050Z,91.69
2024-04-09T06:20:03.171Z,91.68
2024-04-09T06:22:29.791Z,91.65
2024-04-09T06:24:56.376Z,90.23
2024-04-09T06:27:23.162Z,90.41
2024-04-09T06:29:49.794Z,88.01
2024-04-09T06:32:16.486Z,90.39
2024-04-09T06:34:43.674Z,88.69
2024-04-09T06:37:10.524Z,91.05
2024-04-09T06:39:37.496Z,91.33
2024-04-09T06:42:04.939Z,94.84
2024-04-09T06:44:32.698Z,94.00
2024-04-09T06:46:59.707Z,96.51
2024-04-09T06:49:26.614Z,99.00
2024-04-09T06:51:53.225Z,99.99
2024-04-09T06:54:19.935Z,100.00
2024-04-09T06:56:46.572Z,100.00
2024-04-09T06:59:13.154Z,100.00
2024-04-09T07:01:39.930Z,100.00
2024-04-09T07:04:06.647Z,100.00
2024-04-09T07:06:33.504Z,100.00
2024-04-09T07:09:04.312Z,100.00
2024-04-09T07:11:31.004Z,100.00
2024-04-09T07:13:57.878Z,100.00
2024-04-09T07:16:24.915Z,100.00
2024-04-09T07:18:51.695Z,100.00
2024-04-09T07:21:19.243Z,100.00
2024-04-09T07:23:47.322Z,100.00
2024-04-09T07:26:14.983Z,100.00
2024-04-09T07:28:41.634Z,100.00
2024-04-09T07:31:09.583Z,100.00
2024-04-09T07:33:36.505Z,100.00
2024-04-09T07:36:04.541Z,100.00
2024-04-09T07:38:31.543Z,100.00
2024-04-09T07:40:58.140Z,100.00
2024-04-09T07:43:24.779Z,100.00
2024-04-09T07:45:54.794Z,100.00
2024-04-09T07:48:22.487Z,100.00
2024-04-09T07:50:49.342Z,100.00
2024-04-09T07:53:16.946Z,100.00
2024-04-09T07:55:43.548Z,100.00
2024-04-09T07:58:10.801Z,100.00
2024-04-09T08:00:38.073Z,100.00
2024-04-09T08:03:05.385Z,100.00
2024-04-09T08:05:32.751Z,100.00
2024-04-09T08:07:59.834Z,100.00
2024-04-09T08:10:26.888Z,100.00
2024-04-09T08:12:58.788Z,100.00
2024-04-09T08:15:25.479Z,100.00
2024-04-09T08:17:52.303Z,99.92
2024-04-09T08:20:19.176Z,100.00
2024-04-09T08:22:49.206Z,99.11
2024-04-09T08:25:16.910Z,98.74
2024-04-09T08:27:43.680Z,100.00
2024-04-09T08:30:13.816Z,100.00
2024-04-09T08:32:41.751Z,100.00
2024-04-09T08:35:08.808Z,100.00
2024-04-09T08:37:35.529Z,100.00
2024-04-09T08:40:02.806Z,100.00
2024-04-09T08:42:29.569Z,100.00
2024-04-09T08:44:58.745Z,100.00
2024-04-09T08:47:25.859Z,98.39
2024-04-09T08:50:00.379Z,96.73
2024-04-09T08:52:30.502Z,100.00
2024-04-09T08:54:57.237Z,100.00
2024-04-09T08:57:23.970Z,100.00
2024-04-09T08:59:51.268Z,100.00
2024-04-09T09:02:18.316Z,100.00
2024-04-09T09:04:46.809Z,99.35
2024-04-09T09:07:18.358Z,99.72
2024-04-09T09:09:46.021Z,100.00
2024-04-09T09:12:13.108Z,99.64
2024-04-09T09:14:39.955Z,99.06
2024-04-09T09:17:08.430Z,99.28
2024-04-09T09:19:35.591Z,99.29
2024-04-09T09:22:05.864Z,99.91
2024-04-09T09:24:32.708Z,99.74
2024-04-09T09:27:03.858Z,100.00
2024-04-09T09:29:30.979Z,99.89
2024-04-09T09:31:59.346Z,100.00
2024-04-09T09:34:38.664Z,100.00
2024-04-09T09:37:11.354Z,100.00
2024-04-09T09:39:42.092Z,100.00
2024-04-09T09:42:12.178Z,100.00
2024-04-09T09:44:43.526Z,100.00
2024-04-09T09:47:10.171Z,100.00
2024-04-09T09:49:36.987Z,100.00
2024-04-09T09:52:04.469Z,100.00
2024-04-09T09:54:31.269Z,100.00
2024-04-09T09:57:05.376Z,100.00
2024-04-09T09:59:37.836Z,100.00
2024-04-09T10:02:06.445Z,100.00
2024-04-09T10:04:33.284Z,100.00
2024-04-09T10:07:04.816Z,100.00
2024-04-09T10:09:53.275Z,100.00
2024-04-09T10:12:24.865Z,100.00
2024-04-09T10:15:10.784Z,100.00
2024-04-09T10:18:05.052Z,100.00
2024-04-09T10:20:37.054Z,100.00
2024-04-09T10:23:08.277Z,100.00
2024-04-09T10:25:42.941Z,100.00
2024-04-09T10:28:11.873Z,100.00
2024-04-09T10:30:41.222Z,100.00
2024-04-09T10:33:10.151Z,100.00
2024-04-09T10:35:37.346Z,100.00
2024-04-09T10:38:07.870Z,100.00
2024-04-09T10:40:36.153Z,100.00
2024-04-09T10:43:07.245Z,100.00
2024-04-09T10:45:34.337Z,100.00
2024-04-09T10:48:03.126Z,100.00
2024-04-09T10:50:29.879Z,100.00
2024-04-09T10:52:56.593Z,100.00
2024-04-09T10:55:23.302Z,100.00
2024-04-09T10:57:54.280Z,100.00
2024-04-09T11:00:22.974Z,100.00
2024-04-09T11:02:50.196Z,100.00
2024-04-09T11:05:18.987Z,100.00
2024-04-09T11:07:48.189Z,100.00
2024-04-09T11:10:20.487Z,100.00
2024-04-09T11:12:54.527Z,100.00
2024-04-09T11:15:22.486Z,100.00
2024-04-09T11:17:49.404Z,100.00
2024-04-09T11:20:19.628Z,100.00
2024-04-09T11:22:47.970Z,100.00
2024-04-09T11:25:18.539Z,100.00
2024-04-09T11:27:51.605Z,99.15
2024-04-09T11:30:26.107Z,100.00
2024-04-09T11:32:56.811Z,98.87
2024-04-09T11:35:25.143Z,97.53
2024-04-09T11:37:53.654Z,96.79
2024-04-09T11:40:21.427Z,97.73
2024-04-09T11:42:52.820Z,96.38
2024-04-09T11:45:23.725Z,94.81
2024-04-09T11:47:51.056Z,95.17
2024-04-09T11:50:18.682Z,95.29
2024-04-09T11:52:46.365Z,95.09
2024-04-09T11:55:15.118Z,97.92
2024-04-09T11:57:44.695Z,96.23
2024-04-09T12:00:14.872Z,95.70
2024-04-09T12:02:45.151Z,91.32
2024-04-09T12:05:13.686Z,90.16
2024-04-09T12:07:41.356Z,92.14
2024-04-09T12:10:09.239Z,91.03
2024-04-09T12:12:36.747Z,92.32
2024-04-09T12:15:06.809Z,91.07
2024-04-09T12:17:33.983Z,86.92
2024-04-09T12:20:00.706Z,86.64
2024-04-09T12:22:29.833Z,87.55
2024-04-09T12:24:59.956Z,85.81
2024-04-09T12:27:26.770Z,83.71
2024-04-09T12:29:54.095Z,83.72
2024-04-09T12:32:21.553Z,83.60
2024-04-09T12:34:50.168Z,82.64
2024-04-09T12:37:17.163Z,80.47
2024-04-09T12:39:43.870Z,81.61
2024-04-09T12:42:10.886Z,79.45
2024-04-09T12:44:37.554Z,79.16
2024-04-09T12:47:05.289Z,80.38
2024-04-09T12:49:41.852Z,79.30
2024-04-09T12:52:12.694Z,78.02
2024-04-09T12:54:39.611Z,77.71
2024-04-09T12:57:06.522Z,80.03
2024-04-09T12:59:47.863Z,80.16
2024-04-09T13:02:22.808Z,79.58
2024-04-09T13:04:50.642Z,77.73
2024-04-09T13:07:17.596Z,76.40
2024-04-09T13:09:44.600Z,77.22
2024-04-09T13:12:11.384Z,75.78
2024-04-09T13:14:38.029Z,75.40
2024-04-09T13:17:08.173Z,73.55
2024-04-09T13:19:36.612Z,76.22
2024-04-09T13:22:04.005Z,76.73
2024-04-09T13:24:31.037Z,73.97
2024-04-09T13:26:57.788Z,75.82
2024-04-09T13:29:25.563Z,74.81
2024-04-09T13:31:52.608Z,74.67
2024-04-09T13:34:22.889Z,74.43
2024-04-09T13:36:50.480Z,74.33
2024-04-09T13:39:17.181Z,73.41
2024-04-09T13:41:43.877Z,73.07
2024-04-09T13:44:10.593Z,72.74
2024-04-09T13:46:37.217Z,73.80
2024-04-09T13:49:04.264Z,71.82
2024-04-09T13:51:31.102Z,71.13
2024-04-09T13:53:57.854Z,68.61
2024-04-09T13:56:24.508Z,71.91
2024-04-09T13:58:51.164Z,71.63
2024-04-09T14:01:17.907Z,72.57
2024-04-09T14:03:44.707Z,72.83
2024-04-09T14:06:11.717Z,71.60
2024-04-09T14:08:38.867Z,71.10
2024-04-09T14:11:05.808Z,69.71
2024-04-09T14:13:33.137Z,69.18
2024-04-09T14:16:00.057Z,72.48
2024-04-09T14:18:31.388Z,73.25
2024-04-09T14:20:59.880Z,70.98
2024-04-09T14:23:26.709Z,71.65
2024-04-09T14:25:53.528Z,71.30
2024-04-09T14:28:20.221Z,71.20
2024-04-09T14:30:46.932Z,69.99
2024-04-09T14:33:14.426Z,71.02
2024-04-09T14:35:44.366Z,72.21
2024-04-09T14:38:11.138Z,70.91
2024-04-09T14:40:37.874Z,70.51
2024-04-09T14:43:05.050Z,68.78
2024-04-09T14:45:31.912Z,66.40
2024-04-09T14:47:58.833Z,65.33
2024-04-09T14:50:26.266Z,68.71
2024-04-09T14:52:53.177Z,64.85
2024-04-09T14:55:19.846Z,66.62
2024-04-09T14:57:46.621Z,63.42
2024-04-09T15:00:13.943Z,64.41
2024-04-09T15:02:40.877Z,65.00
2024-04-09T15:05:07.772Z,65.15
2024-04-09T15:07:35.667Z,66.35
2024-04-09T15:10:02.532Z,65.44
2024-04-09T15:12:29.173Z,66.17
2024-04-09T15:14:55.993Z,64.91
2024-04-09T15:17:23.715Z,67.18
2024-04-09T15:19:52.473Z,68.81
2024-04-09T15:22:20.706Z,69.01
2024-04-09T15:24:47.293Z,68.26
2024-04-09T15:27:13.925Z,68.70
2024-04-09T15:29:41.641Z,69.26
2024-04-09T15:32:08.476Z,67.00
2024-04-09T15:34:35.306Z,67.41
2024-04-09T15:37:04.047Z,67.77
2024-04-09T15:39:31.239Z,70.09
2024-04-09T15:41:59.560Z,69.03
2024-04-09T15:44:26.965Z,66.47
2024-04-09T15:46:53.693Z,67.81
2024-04-09T15:49:20.455Z,66.87
2024-04-09T15:51:47.115Z,67.47
2024-04-09T15:54:15.304Z,68.42
2024-04-09T15:56:42.352Z,68.21
2024-04-09T15:59:09.005Z,69.15
2024-04-09T16:01:38.152Z,69.34
2024-04-09T16:04:05.031Z,68.62
2024-04-09T16:06:31.957Z,69.25
2024-04-09T16:08:58.567Z,70.68
2024-04-09T16:11:25.401Z,71.42
2024-04-09T16:13:52.164Z,70.10
2024-04-09T16:16:18.857Z,70.59
2024-04-09T16:18:47.752Z,71.59
2024-04-09T16:21:14.712Z,73.10
2024-04-09T16:23:41.710Z,72.84
2024-04-09T16:26:11.310Z,73.77
2024-04-09T16:28:38.301Z,74.58
2024-04-09T16:31:05.189Z,75.23
2024-04-09T16:33:32.882Z,73.88
2024-04-09T16:35:59.673Z,74.43
2024-04-09T16:38:28.860Z,74.60
2024-04-09T16:40:57.516Z,76.80
2024-04-09T16:43:24.166Z,75.59
2024-04-09T16:45:50.840Z,76.18
2024-04-09T16:48:17.557Z,77.93
2024-04-09T16:50:46.661Z,79.20
2024-04-09T16:53:13.785Z,79.42
2024-04-09T16:55:40.851Z,79.48
2024-04-09T16:58:08.652Z,79.83
2024-04-09T17:00:36.760Z,81.06
2024-04-09T17:03:04.085Z,81.09
2024-04-09T17:05:30.852Z,81.58
2024-04-09T17:07:58.499Z,80.31
2024-04-09T17:10:25.396Z,82.94
2024-04-09T17:12:52.012Z,81.98
2024-04-09T17:15:18.766Z,81.66
2024-04-09T17:17:45.516Z,82.05
2024-04-09T17:20:13.126Z,81.28
2024-04-09T17:22:39.852Z,81.68
2024-04-09T17:25:09.657Z,81.35
2024-04-09T17:27:36.536Z,81.51
2024-04-09T17:30:03.999Z,81.98
2024-04-09T17:32:34.404Z,81.81
2024-04-09T17:35:02.080Z,82.14
2024-04-09T17:37:29.655Z,82.54
2024-04-09T17:39:56.290Z,81.48
2024-04-09T17:42:23.862Z,82.45
2024-04-09T17:44:53.729Z,83.24
2024-04-09T17:47:21.771Z,82.43
2024-04-09T17:49:48.966Z,83.58
2024-04-09T17:52:15.721Z,82.86
2024-04-09T17:54:42.399Z,83.19
2024-04-09T17:57:08.962Z,84.04
2024-04-09T17:59:35.931Z,85.29
2024-04-09T18:02:02.963Z,87.03
2024-04-09T18:04:29.717Z,88.79
2024-04-09T18:06:56.511Z,90.67
2024-04-09T18:09:23.145Z,90.76
2024-04-09T18:11:49.863Z,91.61
2024-04-09T18:14:18.665Z,91.42
2024-04-09T18:16:48.701Z,93.17
2024-04-09T18:19:17.180Z,94.03
2024-04-09T18:21:44.216Z,94.26
2024-04-09T18:24:13.150Z,95.00
2024-04-09T18:26:40.361Z,95.37
2024-04-09T18:29:08.588Z,96.18
2024-04-09T18:31:35.509Z,96.62
2024-04-09T18:34:02.209Z,96.42
2024-04-09T18:36:29.283Z,97.82
2024-04-09T18:38:56.434Z,97.67
2024-04-09T18:41:24.531Z,97.12
2024-04-09T18:46:18.030Z,97.83
2024-04-09T18:48:44.724Z,98.04
2024-04-09T18:51:14.880Z,98.64
2024-04-09T18:53:41.565Z,98.73
2024-04-09T18:56:08.568Z,99.59
2024-04-09T18:58:36.258Z,100.00
2024-04-09T19:01:03.282Z,100.00
2024-04-09T19:03:30.030Z,100.00
2024-04-09T19:05:56.714Z,100.00
2024-04-09T19:08:23.727Z,100.00
2024-04-09T19:10:50.516Z,100.00
2024-04-09T19:13:17.122Z,100.00
2024-04-09T19:15:43.703Z,100.00
2024-04-09T19:18:10.495Z,100.00
2024-04-09T19:20:37.404Z,100.00
2024-04-09T19:23:04.318Z,100.00
2024-04-09T19:25:30.990Z,100.00
2024-04-09T19:27:57.610Z,100.00
2024-04-09T19:30:24.174Z,100.00
2024-04-09T19:32:51.464Z,100.00
2024-04-09T19:35:18.251Z,100.00
2024-04-09T19:37:45.273Z,100.00
2024-04-09T19:40:13.463Z,100.00
2024-04-09T19:42:40.236Z,100.00
2024-04-09T19:45:07.477Z,100.00
2024-04-09T19:47:34.458Z,100.00
2024-04-09T19:50:01.537Z,100.00
2024-04-09T19:52:28.330Z,100.00
2024-04-09T19:54:54.933Z,100.00
2024-04-09T19:57:22.063Z,100.00
2024-04-09T19:59:51.223Z,100.00
2024-04-09T20:02:23.862Z,100.00
2024-04-09T20:04:54.295Z,100.00
2024-04-09T20:07:21.934Z,100.00
2024-04-09T20:09:50.049Z,100.00
2024-04-09T20:12:17.395Z,100.00
2024-04-09T20:14:47.950Z,100.00
2024-04-09T20:17:14.760Z,100.00
2024-04-09T20:19:41.472Z,100.00
2024-04-09T20:22:08.645Z,100.00
2024-04-09T20:24:35.390Z,100.00
2024-04-09T20:27:02.160Z,100.00
2024-04-09T20:29:28.963Z,100.00
2024-04-09T20:31:55.666Z,100.00
2024-04-09T20:34:22.542Z,100.00
2024-04-09T20:36:49.320Z,100.00
2024-04-09T20:39:25.083Z,100.00
2024-04-09T20:41:51.808Z,100.00
2024-04-09T20:44:18.859Z,100.00
2024-04-09T20:46:45.506Z,100.00
2024-04-09T20:49:12.304Z,100.00
2024-04-09T20:51:38.946Z,100.00
2024-04-09T20:54:05.866Z,100.00
2024-04-09T20:56:33.466Z,100.00
2024-04-09T20:59:00.469Z,100.00
2024-04-09T21:01:27.226Z,100.00
2024-04-09T21:03:55.393Z,100.00
2024-04-09T21:06:23.924Z,100.00
2024-04-09T21:08:50.479Z,100.00
2024-04-09T21:11:17.166Z,100.00
2024-04-09T21:13:44.086Z,100.00
2024-04-09T21:16:11.837Z,100.00
2024-04-09T21:18:38.540Z,100.00
2024-04-09T21:21:06.168Z,100.00
2024-04-09T21:23:32.898Z,100.00
2024-04-09T21:25:59.492Z,100.00
2024-04-09T21:28:26.087Z,100.00
2024-04-09T21:30:52.729Z,100.00
2024-04-09T21:33:19.752Z,100.00
2024-04-09T21:35:46.411Z,100.00
2024-04-09T21:38:13.010Z,100.00
2024-04-09T21:40:40.020Z,100.00
2024-04-09T21:43:06.703Z,100.00
2024-04-09T21:45:33.311Z,100.00
2024-04-09T21:48:00.132Z,100.00
2024-04-09T21:50:27.019Z,100.00
2024-04-09T21:52:53.673Z,100.00
2024-04-09T21:55:20.276Z,100.00
2024-04-09T21:57:46.844Z,100.00
2024-04-09T22:00:21.324Z,100.00
2024-04-09T22:02:48.650Z,100.00
2024-04-09T22:05:15.380Z,100.00
2024-04-09T22:07:43.179Z,100.00
2024-04-09T22:10:09.881Z,100.00
2024-04-09T22:12:36.511Z,100.00
2024-04-09T22:15:03.225Z,100.00
2024-04-09T22:17:30.016Z,100.00
2024-04-09T22:19:57.525Z,100.00
2024-04-09T22:22:24.227Z,100.00
2024-04-09T22:24:50.884Z,100.00
2024-04-09T22:27:17.453Z,100.00
2024-04-09T22:29:44.056Z,100.00
2024-04-09T22:32:12.121Z,100.00
2024-04-09T22:34:39.109Z,100.00
2024-04-09T22:37:05.734Z,100.00
2024-04-09T22:39:32.385Z,100.00
2024-04-09T22:41:59.038Z,100.00
2024-04-09T22:44:25.978Z,100.00
2024-04-09T22:46:54.798Z,100.00
2024-04-09T22:49:21.626Z,100.00
2024-04-09T22:51:48.357Z,100.00
2024-04-09T22:54:18.070Z,100.00
2024-04-09T22:56:45.029Z,100.00
2024-04-09T22:59:11.821Z,100.00
2024-04-09T23:01:38.489Z,100.00
2024-04-09T23:04:05.246Z,100.00
2024-04-09T23:06:31.901Z,100.00
2024-04-09T23:08:58.450Z,100.00
2024-04-09T23:11:25.326Z,100.00
2024-04-09T23:13:51.992Z,100.00
2024-04-09T23:16:19.997Z,100.00
2024-04-09T23:18:46.897Z,100.00
2024-04-09T23:21:13.532Z,100.00
2024-04-09T23:23:40.237Z,100.00
2024-04-09T23:26:06.984Z,100.00
2024-04-09T23:28:33.698Z,100.00
2024-04-09T23:31:00.276Z,100.00
2024-04-09T23:33:26.983Z,100.00
2024-04-09T23:35:53.586Z,100.00
2024-04-09T23:38:20.171Z,100.00
2024-04-09T23:40:46.821Z,100.00
2024-04-09T23:43:13.489Z,100.00
2024-04-09T23:45:40.124Z,100.00
2024-04-09T23:48:07.798Z,100.00
2024-04-09T23:50:34.810Z,100.00
2024-04-09T23:53:01.583Z,100.00
2024-04-09T23:55:28.497Z,100.00
2024-04-09T23:57:55.100Z,100.00
